Time;durP1;ratioP1;P1;durP2;ratioP2;P2;SDS_P1;SDS_P2;PMS_P1;PMS_P2;Temp;Humidity;BMP_temperature;BMP_pressure;BME280_temperature;BME280_humidity;BME280_pressure;Samples;Min_cycle;Max_cycle;Signal;HPM_P1;HPM_P2
2021/12/06 00:01:43;;;;;;;12.50;10.40;;;3.00;99.90;;;3.44;68.60;96843.53;5107254;28;20058;-44
2021/12/06 00:04:38;;;;;;;11.67;9.17;;;3.00;99.90;;;3.44;68.71;96846.19;5107792;28;20707;-45
2021/12/06 00:07:15;;;;;;;14.30;10.00;;;3.10;99.90;;;3.45;69.14;96851.31;5107124;28;20043;-45
2021/12/06 00:09:44;;;;;;;13.80;9.63;;;3.10;99.90;;;3.47;69.13;96853.78;5107190;28;20060;-44
2021/12/06 00:12:14;;;;;;;13.30;10.00;;;3.10;99.90;;;3.48;68.50;96858.91;5106256;28;20052;-44
2021/12/06 00:14:42;;;;;;;12.00;9.97;;;3.10;99.90;;;3.49;68.43;96857.97;5108308;28;20367;-43
2021/12/06 00:17:14;;;;;;;12.40;10.03;;;3.20;99.90;;;3.47;68.38;96857.28;5106970;28;20164;-44
2021/12/06 00:19:44;;;;;;;12.37;9.73;;;3.10;99.90;;;3.46;68.85;96866.13;5107210;28;20073;-46
2021/12/06 00:22:16;;;;;;;13.07;10.33;;;3.10;99.90;;;3.45;68.57;96859.22;5106830;28;20519;-47
2021/12/06 00:24:44;;;;;;;12.87;9.77;;;3.10;99.90;;;3.46;68.54;96868.75;5107381;28;20051;-44
2021/12/06 00:27:12;;;;;;;11.60;9.00;;;3.10;99.90;;;3.46;68.99;96865.28;5104739;28;20081;-47
2021/12/06 00:29:40;;;;;;;12.27;10.63;;;3.00;99.90;;;3.44;68.62;96864.59;5071820;28;20047;-44
2021/12/06 00:32:08;;;;;;;12.37;9.97;;;3.00;99.90;;;3.37;69.00;96869.56;5089553;28;20054;-45
2021/12/06 00:34:38;;;;;;;12.97;9.50;;;2.90;99.90;;;3.35;69.00;96871.50;5088204;28;20488;-45
2021/12/06 00:39:53;;;;;;;12.07;10.27;;;2.90;99.90;;;3.31;68.59;96880.63;5090296;28;20063;-43
2021/12/06 00:42:25;;;;;;;11.37;10.17;;;2.90;99.90;;;3.31;68.95;96883.25;5107150;28;20056;-45
2021/12/06 00:44:54;;;;;;;11.00;9.60;;;2.90;99.90;;;3.31;68.43;96885.88;5089677;28;20059;-46
2021/12/06 00:47:22;;;;;;;12.23;10.10;;;2.90;99.90;;;3.33;69.18;96887.44;5089504;28;20051;-45
2021/12/06 00:49:51;;;;;;;15.60;11.27;;;2.90;99.90;;;3.33;69.24;96884.81;5089278;28;20250;-44
2021/12/06 00:52:19;;;;;;;13.07;10.43;;;2.90;99.90;;;3.32;68.67;96883.13;5087667;28;20052;-44
2021/12/06 00:54:49;;;;;;;15.03;11.17;;;2.90;99.90;;;3.36;69.32;96886.31;5106434;28;20073;-45
2021/12/06 00:57:17;;;;;;;13.67;11.00;;;3.00;99.90;;;3.37;68.98;96890.59;5087893;28;20058;-46
2021/12/06 00:59:45;;;;;;;16.80;12.50;;;3.00;99.90;;;3.35;69.15;96888.13;5107389;28;20051;-45
2021/12/06 01:02:15;;;;;;;14.03;11.53;;;3.00;99.90;;;3.38;68.81;96894.09;5106661;28;20056;-43
2021/12/06 01:04:46;;;;;;;10.13;8.87;;;3.00;99.90;;;3.41;69.25;96899.06;5088287;28;20051;-46
2021/12/06 01:07:14;;;;;;;13.27;9.73;;;3.10;99.90;;;3.42;69.18;96901.56;5088108;28;20047;-45
2021/12/06 01:09:42;;;;;;;11.53;9.33;;;3.10;99.90;;;3.43;68.95;96905.03;5088215;28;20063;-44
2021/12/06 01:12:12;;;;;;;15.37;10.63;;;3.10;99.90;;;3.35;68.66;96901.28;5105286;28;20077;-46
2021/12/06 01:14:40;;;;;;;13.47;10.60;;;3.00;99.90;;;3.25;69.03;96903.03;5087748;28;20288;-44
2021/12/06 01:17:08;;;;;;;16.67;11.30;;;2.80;99.90;;;3.19;68.76;96910.63;5087973;28;20043;-45
2021/12/06 01:19:38;;;;;;;15.47;11.83;;;2.80;99.90;;;3.20;68.76;96909.66;5089852;28;20342;-43
2021/12/06 01:24:51;;;;;;;13.80;10.40;;;2.80;99.90;;;3.24;69.25;96917.16;5088497;28;20056;-46
2021/12/06 01:40:53;;;;;;;13.23;11.30;;;2.70;99.90;;;3.08;69.21;96935.22;5091169;28;20056;-44
2021/12/06 01:43:21;;;;;;;16.57;12.07;;;2.70;99.90;;;3.04;69.07;96934.66;5089593;28;20234;-44
2021/12/06 01:45:51;;;;;;;16.17;11.63;;;2.60;99.90;;;3.06;69.45;96948.50;5090474;28;20379;-44
2021/12/06 01:48:19;;;;;;;15.67;11.23;;;2.70;99.90;;;3.12;69.33;96955.88;5109681;28;20043;-44
2021/12/06 01:50:47;;;;;;;14.17;11.37;;;2.80;99.90;;;3.19;69.65;96950.09;5091635;28;20063;-45
2021/12/06 01:53:15;;;;;;;14.70;10.80;;;2.90;99.90;;;3.21;69.35;96950.78;5092230;28;20047;-45
2021/12/06 01:55:44;;;;;;;14.73;11.23;;;2.90;99.90;;;3.24;69.41;96954.00;5088267;28;20059;-45
2021/12/06 01:58:12;;;;;;;15.03;10.60;;;2.90;99.90;;;3.25;69.30;96946.94;5109128;28;20350;-44
2021/12/06 02:00:47;;;;;;;16.00;11.77;;;2.90;99.90;;;3.26;69.66;96951.25;5110223;28;20085;-44
2021/12/06 02:03:21;;;;;;;15.67;11.33;;;2.90;99.90;;;3.27;69.06;96945.81;5106922;28;20082;-43
2021/12/06 02:05:49;;;;;;;15.80;10.97;;;2.90;99.90;;;3.30;69.45;96952.63;5088927;28;20043;-44
2021/12/06 02:08:22;;;;;;;16.08;10.32;;;3.00;99.90;;;3.30;69.56;96955.28;5109126;28;20346;-46
2021/12/06 02:10:53;;;;;;;14.77;10.80;;;2.90;99.90;;;3.28;69.61;96965.91;5091151;28;20230;-45
2021/12/06 02:13:22;;;;;;;13.30;10.10;;;2.90;99.90;;;3.22;69.31;96962.97;5108901;28;20047;-44
2021/12/06 02:15:53;;;;;;;15.43;10.37;;;2.80;99.90;;;3.21;69.49;96966.56;5107513;28;20060;-44
2021/12/06 02:18:49;;;;;;;14.53;10.10;;;2.80;99.90;;;3.19;70.06;96973.78;5107584;28;20059;-44
2021/12/06 02:21:31;;;;;;;15.87;11.63;;;2.80;99.90;;;3.19;69.52;96979.84;5090572;28;20694;-44
2021/12/06 02:24:07;;;;;;;14.20;10.40;;;2.80;99.90;;;3.13;69.72;96975.94;5108206;28;20073;-45
2021/12/06 02:26:40;;;;;;;14.87;11.27;;;2.70;99.90;;;3.12;69.57;96976.06;5089189;28;20048;-43
2021/12/06 02:29:09;;;;;;;14.57;10.00;;;2.80;99.90;;;3.08;69.76;96977.31;5090672;28;20235;-45
2021/12/06 02:31:37;;;;;;;14.13;10.90;;;2.70;99.90;;;3.09;70.05;96978.97;5108863;28;20357;-47
2021/12/06 02:34:06;;;;;;;13.30;10.13;;;2.80;99.90;;;3.09;70.20;96984.25;5090056;28;20367;-44
2021/12/06 02:36:34;;;;;;;18.27;11.30;;;2.70;99.90;;;3.07;70.03;96984.38;5108076;28;20059;-44
2021/12/06 02:39:09;;;;;;;14.20;11.03;;;2.70;99.90;;;3.09;70.20;96987.69;5090028;28;20063;-45
2021/12/06 02:41:38;;;;;;;14.93;10.63;;;2.70;99.90;;;3.08;69.92;96985.19;5108497;28;20062;-44
2021/12/06 02:44:09;;;;;;;16.07;11.30;;;2.70;99.90;;;3.10;70.07;96993.78;5089217;28;20255;-46
2021/12/06 02:46:37;;;;;;;15.57;11.17;;;2.80;99.90;;;3.12;70.03;96984.81;5088449;28;20047;-46
2021/12/06 02:49:05;;;;;;;15.63;10.90;;;2.80;99.90;;;3.10;70.13;96986.75;5090759;28;20065;-44
2021/12/06 02:51:33;;;;;;;15.13;11.87;;;2.80;99.90;;;3.11;69.81;96988.41;5109698;28;20051;-43
2021/12/06 02:54:01;;;;;;;12.73;10.20;;;2.80;99.90;;;3.09;69.86;96990.31;5089453;28;20047;-44
2021/12/06 02:56:39;;;;;;;14.20;9.90;;;2.70;99.90;;;3.06;69.80;96990.56;5107655;28;20056;-45
2021/12/06 02:59:10;;;;;;;15.33;10.33;;;2.70;99.90;;;3.09;69.81;97002.66;5090086;28;20081;-44
2021/12/06 03:01:48;;;;;;;15.07;11.37;;;2.70;99.90;;;3.08;69.58;96998.34;5090765;28;20357;-46
2021/12/06 03:04:16;;;;;;;15.07;10.13;;;2.70;99.90;;;3.09;70.06;97002.66;5090609;28;20062;-46
2021/12/06 03:06:47;;;;;;;15.50;9.87;;;2.70;99.90;;;3.10;70.26;96999.03;5089682;28;20428;-45
2021/12/06 03:09:20;;;;;;;14.80;10.30;;;2.70;99.90;;;3.11;69.87;97009.44;5107664;28;20052;-47
2021/12/06 03:11:55;;;;;;;14.87;10.57;;;2.80;99.90;;;3.15;69.97;97002.13;5107195;28;20059;-44
2021/12/06 03:14:32;;;;;;;16.07;9.90;;;2.80;99.90;;;3.20;70.02;97007.84;5107239;28;20392;-45
2021/12/06 03:17:07;;;;;;;14.30;10.10;;;2.90;99.90;;;3.24;70.48;97016.28;5091038;28;20738;-46
2021/12/06 03:19:36;;;;;;;14.57;11.17;;;2.90;99.90;;;3.25;70.18;97016.16;5091194;28;20059;-44
2021/12/06 03:22:07;;;;;;;16.77;11.30;;;2.90;99.90;;;3.28;70.11;97010.66;5107576;28;20090;-44
2021/12/06 03:24:35;;;;;;;15.07;11.70;;;3.00;99.90;;;3.30;70.04;97018.41;5107566;28;20066;-46
2021/12/06 03:27:04;;;;;;;18.13;11.73;;;3.00;99.90;;;3.31;69.85;97018.25;5090219;28;20051;-45
2021/12/06 03:29:34;;;;;;;18.40;10.97;;;3.00;99.90;;;3.32;69.98;97025.19;5089892;28;20059;-46
2021/12/06 03:32:03;;;;;;;19.60;11.70;;;3.00;99.90;;;3.33;70.03;97037.41;5089492;28;20047;-44
2021/12/06 03:34:32;;;;;;;19.67;11.63;;;3.00;99.90;;;3.33;69.84;97028.66;5089914;28;20055;-43
2021/12/06 03:37:05;;;;;;;19.33;12.40;;;3.00;99.90;;;3.34;70.10;97035.59;5088670;28;20055;-45
2021/12/06 03:39:47;;;;;;;16.77;10.67;;;3.00;99.90;;;3.32;69.77;97032.28;5090284;28;20059;-45
2021/12/06 03:42:25;;;;;;;18.60;10.87;;;3.00;99.90;;;3.26;69.74;97038.06;5107648;28;20059;-43
2021/12/06 03:44:54;;;;;;;17.67;12.67;;;2.90;99.90;;;3.25;70.30;97039.84;5088807;28;20054;-44
2021/12/06 03:47:30;;;;;;;20.20;12.00;;;2.90;99.90;;;3.25;70.24;97042.47;5088663;28;20054;-45
2021/12/06 03:50:02;;;;;;;20.07;12.07;;;2.90;99.90;;;3.29;69.89;97045.66;5089939;28;20058;-43
2021/12/06 03:52:30;;;;;;;17.43;10.87;;;2.90;99.90;;;3.32;70.02;97045.44;5106004;28;20059;-43
2021/12/06 03:55:02;;;;;;;17.93;13.13;;;3.00;99.90;;;3.35;70.42;97050.41;5088608;28;20055;-45
2021/12/06 03:57:30;;;;;;;16.23;11.07;;;3.00;99.90;;;3.38;69.92;97051.97;5088921;28;20069;-45
2021/12/06 03:59:59;;;;;;;20.43;12.83;;;3.00;99.90;;;3.37;69.96;97051.09;5088621;28;20059;-44
2021/12/06 04:02:31;;;;;;;17.93;12.63;;;3.00;99.90;;;3.28;70.01;97051.91;5106991;28;20056;-44
2021/12/06 04:05:01;;;;;;;17.67;11.90;;;2.90;99.90;;;3.26;70.10;97056.47;5089208;28;20061;-47
2021/12/06 04:07:31;;;;;;;16.27;10.90;;;2.80;99.90;;;3.19;70.11;97068.47;5088565;28;20055;-44
2021/12/06 04:10:00;;;;;;;15.80;10.67;;;2.80;99.90;;;3.17;69.89;97060.69;5088325;28;20056;-43
2021/12/06 04:12:30;;;;;;;19.80;13.40;;;2.80;99.90;;;3.11;70.30;97069.94;5088820;28;20050;-45
2021/12/06 04:14:58;;;;;;;15.73;11.47;;;2.70;99.90;;;3.08;69.88;97069.34;5088251;28;20056;-45
2021/12/06 04:17:26;;;;;;;19.30;12.10;;;2.70;99.90;;;3.07;70.00;97071.16;5088917;28;20051;-44
2021/12/06 04:19:54;;;;;;;18.70;12.03;;;2.70;99.90;;;3.07;70.30;97076.41;5088906;28;20375;-47
2021/12/06 04:22:22;;;;;;;17.03;10.60;;;2.70;99.90;;;3.07;70.34;97081.69;5088329;28;20063;-44
2021/12/06 04:24:51;;;;;;;17.37;11.37;;;2.70;99.90;;;3.03;70.05;97082.06;5071925;28;20066;-43
2021/12/06 04:27:22;;;;;;;19.17;11.17;;;2.70;99.90;;;3.00;70.60;97084.94;5086789;28;20050;-47
2021/12/06 04:29:52;;;;;;;16.97;11.47;;;2.60;99.90;;;3.02;70.57;97085.66;5089491;28;20054;-44
2021/12/06 04:32:23;;;;;;;20.73;13.07;;;2.70;99.90;;;3.04;70.61;97091.63;5089648;28;20349;-46
2021/12/06 04:34:52;;;;;;;20.37;12.20;;;2.70;99.90;;;2.98;70.92;97095.59;5087833;28;20261;-45
2021/12/06 04:37:21;;;;;;;17.20;11.27;;;2.60;99.90;;;2.98;70.83;97090.31;5072019;28;20059;-44
2021/12/06 04:39:50;;;;;;;17.83;11.27;;;2.60;99.90;;;3.02;70.73;97097.00;5089749;28;20500;-45
2021/12/06 04:42:20;;;;;;;17.03;11.43;;;2.70;99.90;;;3.04;70.38;97097.69;5088176;28;20059;-45
2021/12/06 04:44:49;;;;;;;17.83;12.60;;;2.70;99.90;;;3.04;71.08;97105.59;5088939;28;20051;-45
2021/12/06 04:47:18;;;;;;;17.47;12.47;;;2.70;99.90;;;3.07;70.98;97107.97;5088908;28;20058;-47
2021/12/06 04:49:46;;;;;;;18.97;12.87;;;2.80;99.90;;;3.10;71.10;97104.25;5089120;28;20060;-44
2021/12/06 04:52:18;;;;;;;17.70;11.80;;;2.80;99.90;;;3.12;70.55;97115.47;5088494;28;20054;-45
2021/12/06 04:54:52;;;;;;;21.97;14.10;;;2.80;99.90;;;3.14;70.87;97113.56;5105188;28;20141;-44
2021/12/06 04:57:30;;;;;;;20.37;11.50;;;2.80;99.90;;;3.17;70.30;97128.25;5085697;28;20052;-44
2021/12/06 05:00:55;;;;;;;19.23;12.30;;;2.80;99.90;;;3.18;70.60;97128.16;5106396;28;20052;-44
2021/12/06 05:03:23;;;;;;;18.73;11.95;;;2.90;99.90;;;3.20;70.57;97128.84;5083952;28;20073;-45
2021/12/06 05:06:01;;;;;;;21.40;13.30;;;2.90;99.90;;;3.22;70.56;97126.06;5088213;28;20066;-44
2021/12/06 05:08:36;;;;;;;21.77;12.83;;;2.90;99.90;;;3.25;70.62;97126.66;5091307;28;20069;-45
2021/12/06 05:11:06;;;;;;;19.87;12.43;;;2.90;99.90;;;3.28;70.18;97133.47;5093483;28;20063;-45
2021/12/06 05:13:38;;;;;;;15.80;11.20;;;2.90;99.90;;;3.24;70.77;97143.41;5094216;28;20253;-43
2021/12/06 05:16:06;;;;;;;20.30;12.30;;;2.90;99.90;;;3.20;70.68;97159.56;5110768;28;20052;-45
2021/12/06 05:18:34;;;;;;;17.23;11.70;;;2.90;99.90;;;3.17;70.52;97162.47;5092086;28;20046;-44
2021/12/06 05:21:03;;;;;;;19.03;12.67;;;2.80;99.90;;;3.17;70.47;97162.47;5092736;28;20273;-44
2021/12/06 05:23:32;;;;;;;17.43;12.23;;;2.80;99.90;;;3.11;70.70;97163.81;5090466;28;20265;-44
2021/12/06 05:26:01;;;;;;;19.53;12.73;;;2.80;99.90;;;3.11;70.73;97163.81;5092554;28;20256;-46
2021/12/06 05:28:32;;;;;;;19.83;12.07;;;2.80;99.90;;;3.07;70.96;97173.72;5092098;28;20059;-43
2021/12/06 05:31:00;;;;;;;18.97;13.37;;;2.70;99.90;;;3.09;70.85;97174.44;5091751;28;20293;-45
2021/12/06 05:33:30;;;;;;;19.57;13.47;;;2.80;99.90;;;3.09;70.98;97173.63;5091732;28;20050;-44
2021/12/06 05:36:03;;;;;;;21.37;13.10;;;2.70;99.90;;;3.07;70.69;97191.31;5108646;28;20070;-45
2021/12/06 05:38:31;;;;;;;19.90;13.87;;;2.70;99.90;;;3.02;70.90;97188.22;5110040;28;20043;-45
2021/12/06 05:40:59;;;;;;;21.17;12.67;;;2.70;99.90;;;3.06;70.98;97192.25;5110384;28;20056;-46
2021/12/06 05:43:27;;;;;;;20.13;12.60;;;2.70;99.90;;;3.04;71.52;97197.66;5110684;28;20358;-43
2021/12/06 05:45:56;;;;;;;25.23;15.63;;;2.70;99.90;;;3.04;71.52;97196.81;5108900;28;20054;-45
2021/12/06 05:48:24;;;;;;;18.20;13.13;;;2.70;99.90;;;3.06;71.14;97198.34;5091336;28;20229;-44
2021/12/06 05:50:52;;;;;;;24.83;15.37;;;2.80;99.90;;;3.09;71.58;97208.63;5109377;28;20097;-44
2021/12/06 05:53:20;;;;;;;21.90;13.83;;;2.80;99.90;;;3.15;71.73;97209.94;5110077;28;20047;-44
2021/12/06 05:55:49;;;;;;;22.47;13.30;;;2.90;99.90;;;3.19;71.61;97208.72;5108215;28;20106;-45
2021/12/06 05:58:22;;;;;;;24.00;14.43;;;2.90;99.90;;;3.22;71.49;97215.50;5109800;28;20051;-44
2021/12/06 06:00:50;;;;;;;21.57;12.63;;;2.90;99.90;;;3.08;72.11;97222.75;5110248;28;20052;-44
2021/12/06 06:03:18;;;;;;;25.20;13.83;;;2.80;99.90;;;3.02;71.19;97227.66;5109531;28;20249;-45
2021/12/06 06:05:47;;;;;;;22.87;13.03;;;2.70;99.90;;;3.02;71.53;97228.50;5109001;28;20043;-45
2021/12/06 06:08:16;;;;;;;27.67;14.50;;;2.70;99.90;;;3.02;71.97;97227.66;5092102;28;20058;-44
2021/12/06 06:10:47;;;;;;;27.77;15.63;;;2.70;99.90;;;3.05;71.83;97238.78;5109653;28;20051;-45
2021/12/06 06:13:15;;;;;;;24.83;13.50;;;2.70;99.90;;;3.07;71.58;97238.66;5109543;28;20050;-43
2021/12/06 06:15:43;;;;;;;24.53;13.43;;;2.80;99.90;;;3.07;71.94;97249.19;5108852;28;20062;-44
2021/12/06 06:18:11;;;;;;;25.57;15.17;;;2.80;99.90;;;3.00;71.58;97251.44;5107631;28;20056;-43
2021/12/06 06:20:52;;;;;;;24.93;13.37;;;2.70;99.90;;;3.00;72.15;97254.09;5110011;28;20051;-43
2021/12/06 06:23:22;;;;;;;25.23;15.13;;;2.70;99.90;;;3.03;71.85;97256.47;5108943;28;20249;-45
2021/12/06 06:25:50;;;;;;;27.00;15.93;;;2.70;99.90;;;2.89;72.36;97264.63;5092285;28;20483;-43
2021/12/06 06:28:18;;;;;;;27.17;14.53;;;2.60;99.90;;;2.93;72.18;97266.06;5108854;28;20265;-44
2021/12/06 06:30:46;;;;;;;25.00;14.73;;;2.60;99.90;;;2.91;72.29;97258.31;5107925;28;20066;-43
2021/12/06 06:33:14;;;;;;;28.90;14.47;;;2.60;99.90;;;2.91;71.79;97260.94;5108228;28;20039;-43
2021/12/06 06:35:42;;;;;;;25.50;14.87;;;2.60;99.90;;;2.95;71.82;97267.63;5109292;28;20312;-45
2021/12/06 06:38:10;;;;;;;27.80;14.70;;;2.70;99.90;;;3.00;72.39;97280.38;5090883;28;20050;-43
2021/12/06 06:40:39;;;;;;;27.93;15.03;;;2.70;99.90;;;3.05;72.03;97277.41;5108636;28;20065;-43
2021/12/06 06:43:07;;;;;;;32.40;18.77;;;2.80;99.90;;;2.99;72.73;97288.41;5107788;28;20081;-44
2021/12/06 06:45:34;;;;;;;33.27;19.80;;;2.70;99.90;;;3.02;72.26;97288.97;5108919;28;20055;-44
2021/12/06 06:48:03;;;;;;;30.87;15.83;;;2.70;99.90;;;3.05;72.42;97296.66;5108864;28;20047;-43
2021/12/06 06:50:31;;;;;;;30.83;16.17;;;2.70;99.90;;;3.07;72.40;97288.63;5107911;28;20052;-45
2021/12/06 06:53:00;;;;;;;32.53;16.43;;;2.80;99.90;;;3.11;72.54;97297.94;5107622;28;20043;-44
2021/12/06 06:55:28;;;;;;;36.50;16.27;;;2.80;99.90;;;3.14;72.10;97302.94;5108568;28;20706;-45
2021/12/06 06:57:56;;;;;;;35.73;17.90;;;2.90;99.90;;;3.14;72.28;97301.19;5108052;28;20405;-43
2021/12/06 07:00:37;;;;;;;31.87;17.53;;;2.90;99.90;;;3.19;71.95;97307.84;5092243;28;20262;-44
2021/12/06 07:03:08;;;;;;;32.73;17.03;;;2.90;99.90;;;3.15;72.46;97313.34;5107584;28;20052;-43
2021/12/06 07:05:37;;;;;;;31.27;16.13;;;2.90;99.90;;;3.19;72.09;97310.50;5090376;28;20047;-46
2021/12/06 07:08:06;;;;;;;35.07;18.13;;;2.90;99.90;;;3.19;71.88;97315.75;5090064;28;20044;-43
2021/12/06 07:10:34;;;;;;;33.33;15.97;;;2.90;99.90;;;3.20;72.05;97317.41;5108729;28;20054;-43
2021/12/06 07:13:07;;;;;;;30.97;15.87;;;2.90;99.90;;;3.20;72.35;97320.03;5107318;28;20061;-42
2021/12/06 07:15:36;;;;;;;39.13;16.80;;;2.90;99.90;;;3.15;72.78;97326.50;5108944;28;20054;-44
2021/12/06 07:18:05;;;;;;;32.53;15.87;;;2.90;99.90;;;3.11;72.14;97327.72;5108573;28;20051;-46
2021/12/06 07:20:34;;;;;;;35.17;17.20;;;2.80;99.90;;;3.18;72.12;97332.47;5108285;28;20254;-45
2021/12/06 07:23:03;;;;;;;30.57;16.53;;;2.80;99.90;;;3.19;72.13;97340.25;5105854;28;20257;-46
2021/12/06 07:25:31;;;;;;;33.30;16.20;;;2.90;99.90;;;3.20;71.98;97347.19;5106966;28;20055;-45
2021/12/06 07:28:00;;;;;;;30.57;15.53;;;2.90;99.90;;;3.18;72.47;97345.63;5107631;28;20043;-46
2021/12/06 07:30:28;;;;;;;35.70;16.90;;;2.90;99.90;;;3.23;72.21;97348.75;5106340;28;20052;-44
2021/12/06 07:32:56;;;;;;;36.73;16.23;;;2.90;99.90;;;3.24;72.25;97351.25;5108760;28;20069;-46
2021/12/06 07:35:26;;;;;;;30.60;17.33;;;2.90;99.90;;;3.19;71.95;97349.94;5105233;28;20059;-44
2021/12/06 07:37:54;;;;;;;34.87;16.40;;;2.90;99.90;;;3.24;71.99;97353.88;5107471;28;20519;-44
2021/12/06 07:40:21;;;;;;;35.80;15.80;;;2.90;99.90;;;3.22;72.15;97352.31;5108353;28;20453;-49
2021/12/06 07:42:49;;;;;;;35.13;15.97;;;2.90;99.90;;;3.28;72.63;97346.59;5107307;28;20249;-44
2021/12/06 07:45:18;;;;;;;29.90;15.27;;;3.00;99.90;;;3.26;72.59;97356.41;5106037;28;20059;-44
2021/12/06 07:47:47;;;;;;;34.63;16.13;;;3.00;99.90;;;3.27;72.78;97361.53;5107592;28;20050;-45
2021/12/06 07:50:20;;;;;;;32.27;16.63;;;3.00;99.90;;;3.31;72.58;97370.84;5107590;28;20056;-47
2021/12/06 07:52:53;;;;;;;31.07;16.23;;;3.10;99.90;;;3.33;72.57;97371.59;5106845;28;20066;-44
2021/12/06 07:55:26;;;;;;;34.53;16.23;;;3.10;99.90;;;3.28;72.65;97376.38;5105724;28;20056;-44
2021/12/06 07:57:56;;;;;;;30.70;17.45;;;3.00;99.90;;;3.29;72.82;97378.00;5104292;28;20341;-43
2021/12/06 08:00:27;;;;;;;28.43;14.87;;;3.00;99.90;;;3.25;72.10;97373.97;5088396;28;20062;-42
2021/12/06 08:02:56;;;;;;;30.27;15.10;;;3.00;99.90;;;3.31;72.25;97373.47;5105903;28;20343;-42
2021/12/06 08:05:29;;;;;;;27.70;15.57;;;3.00;99.90;;;3.41;72.73;97367.47;5105280;28;20062;-42
2021/12/06 08:08:03;;;;;;;32.85;15.98;;;3.10;99.90;;;3.47;72.45;97361.72;5088699;28;20055;-45
2021/12/06 08:10:34;;;;;;;28.90;14.77;;;3.20;99.90;;;3.49;72.32;97373.81;5106642;28;20055;-45
2021/12/06 08:13:04;;;;;;;28.50;15.80;;;3.30;99.90;;;3.51;72.20;97373.69;5108077;28;20043;-45
2021/12/06 08:15:32;;;;;;;28.37;14.40;;;3.20;99.90;;;3.50;71.81;97372.84;5107463;28;20044;-47
2021/12/06 08:18:01;;;;;;;26.93;14.73;;;3.20;99.90;;;3.48;72.04;97382.66;5107175;28;20403;-47
2021/12/06 08:20:28;;;;;;;26.53;15.37;;;3.20;99.90;;;3.47;72.28;97381.00;5108711;28;20260;-46
2021/12/06 08:22:57;;;;;;;29.13;15.00;;;3.20;99.90;;;3.47;72.18;97391.53;5106805;28;20066;-46
2021/12/06 08:25:25;;;;;;;28.67;14.47;;;3.20;99.90;;;3.48;72.25;97387.91;5107398;28;20057;-47
2021/12/06 08:27:53;;;;;;;24.50;13.23;;;3.20;99.90;;;3.47;72.41;97393.28;5106952;28;20322;-48
2021/12/06 08:30:23;;;;;;;25.93;14.13;;;3.20;99.90;;;3.45;72.61;97393.44;5107484;28;20056;-44
2021/12/06 08:32:55;;;;;;;25.17;14.17;;;3.20;99.90;;;3.43;72.39;97394.50;5088659;28;20055;-46
2021/12/06 08:35:39;;;;;;;26.60;14.50;;;3.20;99.90;;;3.42;72.59;97391.03;5107561;28;20048;-44
2021/12/06 08:38:10;;;;;;;22.70;13.13;;;3.10;99.90;;;3.44;72.67;97401.47;5089472;28;20054;-47
2021/12/06 08:40:41;;;;;;;23.27;14.40;;;3.20;99.90;;;3.49;72.59;97399.28;5107503;28;20050;-44
2021/12/06 08:43:16;;;;;;;20.50;12.17;;;3.20;99.90;;;3.48;72.71;97402.88;5110198;28;20568;-47
2021/12/06 08:45:58;;;;;;;24.20;14.37;;;3.20;99.90;;;3.49;72.83;97404.53;5110824;28;20070;-46
2021/12/06 08:48:31;;;;;;;23.37;12.30;;;3.30;99.90;;;3.47;73.06;97409.94;5110695;28;20052;-44
2021/12/06 08:51:11;;;;;;;23.95;13.63;;;3.30;99.90;;;3.51;72.93;97400.00;5110837;28;20054;-47
2021/12/06 08:53:41;;;;;;;25.27;13.23;;;3.30;99.90;;;3.54;73.12;97405.00;5110711;28;20056;-44
2021/12/06 08:56:09;;;;;;;20.03;11.90;;;3.30;99.90;;;3.56;72.68;97405.72;5109127;28;20058;-45
2021/12/06 08:58:39;;;;;;;14.90;10.10;;;3.30;99.90;;;3.58;73.31;97421.41;5092979;28;20047;-46
2021/12/06 09:01:08;;;;;;;15.23;9.47;;;3.40;99.90;;;3.61;72.81;97410.63;5107781;28;20051;-46
2021/12/06 09:03:51;;;;;;;13.37;8.70;;;3.40;99.90;;;3.57;72.83;97411.81;5108417;28;20063;-44
2021/12/06 09:06:20;;;;;;;15.50;9.03;;;3.40;99.90;;;3.50;73.10;97412.31;5110388;28;20043;-45
2021/12/06 09:08:48;;;;;;;14.80;9.20;;;3.30;99.90;;;3.43;73.22;97419.06;5108973;28;20816;-44
2021/12/06 09:11:16;;;;;;;15.43;9.00;;;3.20;99.90;;;3.45;72.88;97418.91;5099760;28;20054;-45
2021/12/06 09:13:44;;;;;;;17.00;9.03;;;3.30;99.90;;;3.49;73.12;97420.31;5108404;28;20062;-43
2021/12/06 09:16:13;;;;;;;16.87;8.53;;;3.30;99.90;;;3.48;73.04;97414.22;5109086;28;20578;-47
2021/12/06 09:18:43;;;;;;;14.63;8.60;;;3.40;99.90;;;3.49;72.95;97420.31;5107980;28;20052;-46
2021/12/06 09:21:17;;;;;;;15.07;8.40;;;3.40;99.90;;;3.54;72.94;97424.28;5111086;28;20078;-47
2021/12/06 09:23:46;;;;;;;13.23;8.33;;;3.40;99.90;;;3.53;73.33;97421.78;5102373;28;20059;-45
2021/12/06 09:26:16;;;;;;;14.53;9.17;;;3.40;99.90;;;3.54;72.79;97426.91;5112179;28;20050;-47
2021/12/06 09:28:45;;;;;;;15.90;8.50;;;3.40;99.90;;;3.58;72.97;97430.13;5105553;28;20055;-43
2021/12/06 09:31:15;;;;;;;16.63;9.50;;;3.50;99.90;;;3.61;73.24;97423.81;5110460;28;20059;-49
2021/12/06 09:33:43;;;;;;;17.97;10.33;;;3.50;99.90;;;3.53;73.55;97424.41;5110586;28;20048;-44
2021/12/06 09:36:13;;;;;;;15.37;10.17;;;3.40;99.90;;;3.61;73.03;97429.91;5108579;28;20049;-45
2021/12/06 09:38:43;;;;;;;18.23;10.43;;;3.50;99.90;;;3.67;73.17;97437.28;5110805;28;20051;-43
2021/12/06 09:41:23;;;;;;;20.00;10.70;;;3.50;99.90;;;3.62;72.91;97436.00;5110988;28;20058;-48
2021/12/06 09:43:58;;;;;;;16.53;10.27;;;3.50;99.90;;;3.61;72.93;97429.91;5108911;28;20368;-44
2021/12/06 09:46:28;;;;;;;16.23;10.53;;;3.40;99.90;;;3.59;72.81;97437.09;5109234;28;20054;-45
2021/12/06 09:48:56;;;;;;;16.57;8.77;;;3.50;99.90;;;3.71;72.65;97444.00;5090572;28;20043;-45
2021/12/06 09:51:26;;;;;;;17.53;10.63;;;3.50;99.90;;;3.73;73.26;97435.97;5110815;28;20075;-45
2021/12/06 09:53:57;;;;;;;18.57;9.13;;;3.60;99.90;;;3.78;73.28;97440.84;5105339;28;20054;-44
2021/12/06 09:56:33;;;;;;;16.13;10.17;;;3.60;99.90;;;3.86;73.26;97441.09;5098071;28;20048;-45
2021/12/06 09:59:06;;;;;;;14.33;8.23;;;3.70;99.90;;;3.93;73.02;97443.06;5100270;28;20055;-44
2021/12/06 10:01:40;;;;;;;11.63;8.07;;;3.80;99.90;;;3.94;73.23;97433.41;5110897;28;20059;-46
2021/12/06 10:04:11;;;;;;;11.85;8.23;;;3.90;99.90;;;3.93;72.29;97436.97;5107918;28;20324;-47
2021/12/06 10:06:39;;;;;;;13.27;9.07;;;3.80;99.90;;;4.00;72.49;97434.69;5121442;28;20057;-45
2021/12/06 10:09:12;;;;;;;12.33;8.57;;;3.80;99.90;;;4.11;72.79;97432.88;5115152;28;20047;-44
2021/12/06 10:11:41;;;;;;;13.43;9.07;;;4.10;99.90;;;4.19;72.79;97431.38;5118397;28;20045;-47
2021/12/06 10:14:10;;;;;;;12.37;8.40;;;4.10;99.90;;;4.22;72.53;97423.22;5120815;28;20100;-46
2021/12/06 10:16:38;;;;;;;11.97;8.73;;;4.10;99.90;;;4.23;72.04;97422.28;5113871;28;20051;-45
2021/12/06 10:19:07;;;;;;;12.33;8.17;;;4.10;99.90;;;4.20;72.26;97415.44;5119434;28;20056;-45
2021/12/06 10:21:37;;;;;;;12.80;8.20;;;4.10;99.90;;;4.21;71.99;97416.31;5120679;28;20055;-45
2021/12/06 10:24:13;;;;;;;11.93;7.37;;;4.10;99.90;;;4.19;72.24;97412.94;5120288;28;20129;-44
2021/12/06 10:26:41;;;;;;;15.57;8.47;;;4.00;99.90;;;4.17;72.01;97399.91;5120420;28;20043;-46
2021/12/06 10:29:19;;;;;;;14.27;9.27;;;4.00;99.90;;;4.18;71.87;97406.00;5120640;28;20378;-43
2021/12/06 10:31:54;;;;;;;14.40;8.27;;;4.00;99.90;;;4.22;72.15;97408.25;5121275;28;20044;-44
2021/12/06 10:34:27;;;;;;;15.80;9.90;;;4.00;99.90;;;4.24;71.44;97397.59;5119670;28;20056;-46
2021/12/06 10:36:56;;;;;;;13.70;9.40;;;4.00;99.90;;;4.22;72.00;97397.69;5120699;28;20047;-45
2021/12/06 10:39:24;;;;;;;14.90;9.30;;;3.90;99.90;;;4.23;71.81;97396.75;5120529;28;20059;-46
2021/12/06 10:41:53;;;;;;;11.40;7.87;;;4.00;99.90;;;4.08;71.56;97396.22;5116595;28;20073;-46
2021/12/06 10:44:21;;;;;;;10.90;7.47;;;3.80;99.90;;;4.07;71.98;97394.56;5101313;28;20052;-44
2021/12/06 10:46:52;;;;;;;13.80;7.77;;;3.80;99.90;;;4.09;71.82;97394.41;5119683;28;20300;-45
2021/12/06 10:49:25;;;;;;;10.17;7.00;;;3.90;99.90;;;4.11;71.89;97398.59;5119090;28;20372;-45
2021/12/06 10:51:53;;;;;;;18.20;8.23;;;3.90;99.90;;;4.13;71.13;97401.13;5098876;28;20126;-47
2021/12/06 10:54:36;;;;;;;9.20;6.60;;;4.00;99.90;;;4.10;71.55;97396.94;5088102;28;20134;-46